sensor_id;sensor_type;location;lat;lon;timestamp;P1;durP1;ratioP1;P2;durP2;ratioP2
64938;SDS011;51453;47.738;7.420;2024-01-15T00:01:37;85.13;;;28.98;;
64938;SDS011;51453;47.738;7.420;2024-01-15T00:04:07;74.10;;;28.60;;
64938;SDS011;51453;47.738;7.420;2024-01-15T00:06:33;86.10;;;29.80;;
64938;SDS011;51453;47.738;7.420;2024-01-15T00:09:00;89.05;;;30.42;;
64938;SDS011;51453;47.738;7.420;2024-01-15T00:11:28;90.22;;;30.55;;
64938;SDS011;51453;47.738;7.420;2024-01-15T00:13:58;82.15;;;30.58;;
64938;SDS011;51453;47.738;7.420;2024-01-15T00:16:28;85.47;;;30.10;;
64938;SDS011;51453;47.738;7.420;2024-01-15T00:18:56;84.22;;;28.50;;
64938;SDS011;51453;47.738;7.420;2024-01-15T00:21:24;80.20;;;29.85;;
64938;SDS011;51453;47.738;7.420;2024-01-15T00:23:53;80.90;;;29.17;;
64938;SDS011;51453;47.738;7.420;2024-01-15T00:26:22;79.70;;;29.67;;
64938;SDS011;51453;47.738;7.420;2024-01-15T00:28:49;81.60;;;29.73;;
64938;SDS011;51453;47.738;7.420;2024-01-15T00:31:18;79.72;;;29.52;;
64938;SDS011;51453;47.738;7.420;2024-01-15T00:33:45;80.40;;;28.52;;
64938;SDS011;51453;47.738;7.420;2024-01-15T00:36:16;74.60;;;27.63;;
64938;SDS011;51453;47.738;7.420;2024-01-15T00:38:47;75.30;;;28.50;;
64938;SDS011;51453;47.738;7.420;2024-01-15T00:41:20;78.03;;;27.83;;
64938;SDS011;51453;47.738;7.420;2024-01-15T00:43:50;80.30;;;28.35;;
64938;SDS011;51453;47.738;7.420;2024-01-15T00:46:19;78.15;;;28.23;;
64938;SDS011;51453;47.738;7.420;2024-01-15T00:48:46;69.22;;;27.25;;
64938;SDS011;51453;47.738;7.420;2024-01-15T00:51:17;77.22;;;28.55;;
64938;SDS011;51453;47.738;7.420;2024-01-15T00:53:48;74.43;;;27.30;;
64938;SDS011;51453;47.738;7.420;2024-01-15T00:56:17;73.85;;;28.20;;
64938;SDS011;51453;47.738;7.420;2024-01-15T00:58:49;71.63;;;28.92;;
64938;SDS011;51453;47.738;7.420;2024-01-15T01:01:17;69.45;;;28.13;;
64938;SDS011;51453;47.738;7.420;2024-01-15T01:03:47;76.72;;;27.73;;
64938;SDS011;51453;47.738;7.420;2024-01-15T01:06:17;72.47;;;28.45;;
64938;SDS011;51453;47.738;7.420;2024-01-15T01:11:14;81.03;;;28.15;;
64938;SDS011;51453;47.738;7.420;2024-01-15T01:13:43;71.30;;;27.00;;
64938;SDS011;51453;47.738;7.420;2024-01-15T01:16:11;76.72;;;28.52;;
64938;SDS011;51453;47.738;7.420;2024-01-15T01:18:38;87.00;;;30.27;;
64938;SDS011;51453;47.738;7.420;2024-01-15T01:21:06;86.22;;;31.23;;
64938;SDS011;51453;47.738;7.420;2024-01-15T01:23:35;82.78;;;30.23;;
64938;SDS011;51453;47.738;7.420;2024-01-15T01:26:03;89.25;;;31.08;;
64938;SDS011;51453;47.738;7.420;2024-01-15T01:28:30;91.28;;;31.38;;
64938;SDS011;51453;47.738;7.420;2024-01-15T01:30:57;100.80;;;34.08;;
64938;SDS011;51453;47.738;7.420;2024-01-15T01:33:24;92.60;;;31.75;;
64938;SDS011;51453;47.738;7.420;2024-01-15T01:35:53;87.68;;;31.67;;
64938;SDS011;51453;47.738;7.420;2024-01-15T01:38:24;84.38;;;29.23;;
64938;SDS011;51453;47.738;7.420;2024-01-15T01:40:52;88.00;;;29.92;;
64938;SDS011;51453;47.738;7.420;2024-01-15T01:43:20;87.88;;;30.45;;
64938;SDS011;51453;47.738;7.420;2024-01-15T01:45:54;93.40;;;30.27;;
64938;SDS011;51453;47.738;7.420;2024-01-15T01:48:24;82.40;;;28.73;;
64938;SDS011;51453;47.738;7.420;2024-01-15T01:50:53;94.15;;;32.90;;
64938;SDS011;51453;47.738;7.420;2024-01-15T01:53:25;90.50;;;32.75;;
64938;SDS011;51453;47.738;7.420;2024-01-15T01:55:54;90.32;;;32.88;;
64938;SDS011;51453;47.738;7.420;2024-01-15T01:58:24;83.15;;;28.48;;
64938;SDS011;51453;47.738;7.420;2024-01-15T02:00:56;82.30;;;28.73;;
64938;SDS011;51453;47.738;7.420;2024-01-15T02:03:26;80.65;;;28.70;;
64938;SDS011;51453;47.738;7.420;2024-01-15T02:05:56;86.72;;;30.30;;
64938;SDS011;51453;47.738;7.420;2024-01-15T02:08:24;87.15;;;29.67;;
64938;SDS011;51453;47.738;7.420;2024-01-15T02:10:52;80.18;;;28.17;;
64938;SDS011;51453;47.738;7.420;2024-01-15T02:13:24;83.35;;;28.77;;
64938;SDS011;51453;47.738;7.420;2024-01-15T02:15:53;74.22;;;27.38;;
64938;SDS011;51453;47.738;7.420;2024-01-15T02:18:22;82.10;;;28.02;;
64938;SDS011;51453;47.738;7.420;2024-01-15T02:20:51;83.03;;;27.13;;
64938;SDS011;51453;47.738;7.420;2024-01-15T02:23:21;62.78;;;19.77;;
64938;SDS011;51453;47.738;7.420;2024-01-15T02:25:51;102.32;;;29.67;;
64938;SDS011;51453;47.738;7.420;2024-01-15T02:28:22;108.05;;;29.50;;
64938;SDS011;51453;47.738;7.420;2024-01-15T02:30:52;128.40;;;32.23;;
64938;SDS011;51453;47.738;7.420;2024-01-15T02:33:23;131.77;;;33.72;;
64938;SDS011;51453;47.738;7.420;2024-01-15T02:35:53;126.80;;;31.23;;
64938;SDS011;51453;47.738;7.420;2024-01-15T02:38:24;128.55;;;32.17;;
64938;SDS011;51453;47.738;7.420;2024-01-15T02:40:53;126.32;;;30.85;;
64938;SDS011;51453;47.738;7.420;2024-01-15T02:45:53;123.07;;;30.65;;
64938;SDS011;51453;47.738;7.420;2024-01-15T02:50:53;109.70;;;28.70;;
64938;SDS011;51453;47.738;7.420;2024-01-15T02:53:19;113.30;;;29.70;;
64938;SDS011;51453;47.738;7.420;2024-01-15T02:55:48;109.45;;;30.95;;
64938;SDS011;51453;47.738;7.420;2024-01-15T02:58:16;110.70;;;29.98;;
64938;SDS011;51453;47.738;7.420;2024-01-15T03:00:43;109.35;;;30.70;;
64938;SDS011;51453;47.738;7.420;2024-01-15T03:03:09;108.07;;;31.02;;
64938;SDS011;51453;47.738;7.420;2024-01-15T03:05:36;98.43;;;28.30;;
64938;SDS011;51453;47.738;7.420;2024-01-15T03:08:03;93.80;;;29.60;;
64938;SDS011;51453;47.738;7.420;2024-01-15T03:10:30;85.15;;;28.20;;
64938;SDS011;51453;47.738;7.420;2024-01-15T03:12:58;79.63;;;28.17;;
64938;SDS011;51453;47.738;7.420;2024-01-15T03:15:29;83.32;;;27.20;;
64938;SDS011;51453;47.738;7.420;2024-01-15T03:17:56;83.47;;;27.88;;
64938;SDS011;51453;47.738;7.420;2024-01-15T03:20:25;81.07;;;26.40;;
64938;SDS011;51453;47.738;7.420;2024-01-15T03:22:56;74.68;;;25.40;;
64938;SDS011;51453;47.738;7.420;2024-01-15T03:25:26;81.80;;;26.95;;
64938;SDS011;51453;47.738;7.420;2024-01-15T03:27:54;83.78;;;27.27;;
64938;SDS011;51453;47.738;7.420;2024-01-15T03:30:21;76.68;;;26.38;;
64938;SDS011;51453;47.738;7.420;2024-01-15T03:32:49;75.10;;;25.90;;
64938;SDS011;51453;47.738;7.420;2024-01-15T03:35:18;82.57;;;27.23;;
64938;SDS011;51453;47.738;7.420;2024-01-15T03:37:44;77.28;;;25.75;;
64938;SDS011;51453;47.738;7.420;2024-01-15T03:40:13;76.10;;;25.02;;
64938;SDS011;51453;47.738;7.420;2024-01-15T03:42:41;77.30;;;25.20;;
64938;SDS011;51453;47.738;7.420;2024-01-15T03:45:08;73.32;;;25.50;;
64938;SDS011;51453;47.738;7.420;2024-01-15T03:47:37;64.55;;;23.25;;
64938;SDS011;51453;47.738;7.420;2024-01-15T03:50:05;68.53;;;24.05;;
64938;SDS011;51453;47.738;7.420;2024-01-15T03:52:34;69.50;;;24.17;;
64938;SDS011;51453;47.738;7.420;2024-01-15T03:55:03;61.78;;;22.30;;
64938;SDS011;51453;47.738;7.420;2024-01-15T03:57:34;68.82;;;23.55;;
64938;SDS011;51453;47.738;7.420;2024-01-15T04:00:03;64.20;;;22.88;;
64938;SDS011;51453;47.738;7.420;2024-01-15T04:02:31;66.22;;;23.67;;
64938;SDS011;51453;47.738;7.420;2024-01-15T04:04:59;66.72;;;23.75;;
64938;SDS011;51453;47.738;7.420;2024-01-15T04:07:32;63.03;;;23.58;;
64938;SDS011;51453;47.738;7.420;2024-01-15T04:09:59;71.22;;;24.83;;
64938;SDS011;51453;47.738;7.420;2024-01-15T04:12:29;66.88;;;23.38;;
64938;SDS011;51453;47.738;7.420;2024-01-15T04:14:58;63.20;;;23.60;;
64938;SDS011;51453;47.738;7.420;2024-01-15T04:17:29;69.95;;;24.77;;
64938;SDS011;51453;47.738;7.420;2024-01-15T04:20:00;63.17;;;22.88;;
64938;SDS011;51453;47.738;7.420;2024-01-15T04:22:30;61.70;;;22.15;;
64938;SDS011;51453;47.738;7.420;2024-01-15T04:25:02;62.88;;;23.30;;
64938;SDS011;51453;47.738;7.420;2024-01-15T04:27:31;64.32;;;22.85;;
64938;SDS011;51453;47.738;7.420;2024-01-15T04:30:02;59.65;;;23.27;;
64938;SDS011;51453;47.738;7.420;2024-01-15T04:32:30;63.10;;;23.40;;
64938;SDS011;51453;47.738;7.420;2024-01-15T04:34:58;66.55;;;21.90;;
64938;SDS011;51453;47.738;7.420;2024-01-15T04:37:28;58.97;;;22.05;;
64938;SDS011;51453;47.738;7.420;2024-01-15T04:39:55;59.35;;;22.20;;
64938;SDS011;51453;47.738;7.420;2024-01-15T04:42:22;62.67;;;22.27;;
64938;SDS011;51453;47.738;7.420;2024-01-15T04:44:49;61.00;;;23.15;;
64938;SDS011;51453;47.738;7.420;2024-01-15T04:47:16;55.95;;;21.38;;
64938;SDS011;51453;47.738;7.420;2024-01-15T04:49:44;59.78;;;22.48;;
64938;SDS011;51453;47.738;7.420;2024-01-15T04:52:12;60.28;;;22.58;;
64938;SDS011;51453;47.738;7.420;2024-01-15T04:54:38;54.42;;;22.15;;
64938;SDS011;51453;47.738;7.420;2024-01-15T04:57:06;55.60;;;21.40;;
64938;SDS011;51453;47.738;7.420;2024-01-15T04:59:34;57.28;;;22.25;;
64938;SDS011;51453;47.738;7.420;2024-01-15T05:02:01;59.20;;;22.30;;
64938;SDS011;51453;47.738;7.420;2024-01-15T05:04:30;61.03;;;22.20;;
64938;SDS011;51453;47.738;7.420;2024-01-15T05:06:59;62.85;;;22.92;;
64938;SDS011;51453;47.738;7.420;2024-01-15T05:09:26;59.28;;;23.67;;
64938;SDS011;51453;47.738;7.420;2024-01-15T05:11:55;63.38;;;23.38;;
64938;SDS011;51453;47.738;7.420;2024-01-15T05:14:22;65.97;;;23.55;;
64938;SDS011;51453;47.738;7.420;2024-01-15T05:16:49;60.55;;;22.60;;
64938;SDS011;51453;47.738;7.420;2024-01-15T05:19:17;64.85;;;24.15;;
64938;SDS011;51453;47.738;7.420;2024-01-15T05:21:43;67.95;;;24.20;;
64938;SDS011;51453;47.738;7.420;2024-01-15T05:24:11;61.33;;;23.25;;
64938;SDS011;51453;47.738;7.420;2024-01-15T05:26:40;61.08;;;23.15;;
64938;SDS011;51453;47.738;7.420;2024-01-15T05:29:09;63.47;;;22.75;;
64938;SDS011;51453;47.738;7.420;2024-01-15T05:31:38;63.03;;;23.05;;
64938;SDS011;51453;47.738;7.420;2024-01-15T05:34:07;64.28;;;22.60;;
64938;SDS011;51453;47.738;7.420;2024-01-15T05:36:34;68.63;;;23.52;;
64938;SDS011;51453;47.738;7.420;2024-01-15T05:39:02;59.30;;;21.98;;
64938;SDS011;51453;47.738;7.420;2024-01-15T05:41:29;55.08;;;20.75;;
64938;SDS011;51453;47.738;7.420;2024-01-15T05:43:56;53.35;;;21.02;;
64938;SDS011;51453;47.738;7.420;2024-01-15T05:46:23;51.53;;;19.35;;
64938;SDS011;51453;47.738;7.420;2024-01-15T05:48:50;51.25;;;19.52;;
64938;SDS011;51453;47.738;7.420;2024-01-15T05:51:18;55.33;;;20.55;;
64938;SDS011;51453;47.738;7.420;2024-01-15T05:53:45;47.40;;;17.73;;
64938;SDS011;51453;47.738;7.420;2024-01-15T05:56:12;50.83;;;18.92;;
64938;SDS011;51453;47.738;7.420;2024-01-15T05:58:38;45.92;;;18.40;;
64938;SDS011;51453;47.738;7.420;2024-01-15T06:01:05;52.38;;;20.05;;
64938;SDS011;51453;47.738;7.420;2024-01-15T06:03:32;47.70;;;18.52;;
64938;SDS011;51453;47.738;7.420;2024-01-15T06:06:00;46.83;;;17.77;;
64938;SDS011;51453;47.738;7.420;2024-01-15T06:08:26;52.00;;;18.92;;
64938;SDS011;51453;47.738;7.420;2024-01-15T06:10:55;52.05;;;18.13;;
64938;SDS011;51453;47.738;7.420;2024-01-15T06:13:22;47.28;;;17.75;;
64938;SDS011;51453;47.738;7.420;2024-01-15T06:15:49;48.42;;;18.50;;
64938;SDS011;51453;47.738;7.420;2024-01-15T06:18:16;49.80;;;18.40;;
64938;SDS011;51453;47.738;7.420;2024-01-15T06:20:42;59.83;;;21.00;;
64938;SDS011;51453;47.738;7.420;2024-01-15T06:23:10;45.15;;;17.98;;
64938;SDS011;51453;47.738;7.420;2024-01-15T06:25:37;49.85;;;18.42;;
64938;SDS011;51453;47.738;7.420;2024-01-15T06:28:04;53.15;;;20.63;;
64938;SDS011;51453;47.738;7.420;2024-01-15T06:30:31;50.42;;;19.80;;
64938;SDS011;51453;47.738;7.420;2024-01-15T06:32:59;52.35;;;20.17;;
64938;SDS011;51453;47.738;7.420;2024-01-15T06:35:26;64.82;;;24.23;;
64938;SDS011;51453;47.738;7.420;2024-01-15T06:37:53;47.65;;;18.40;;
64938;SDS011;51453;47.738;7.420;2024-01-15T06:40:20;41.17;;;16.25;;
64938;SDS011;51453;47.738;7.420;2024-01-15T06:42:46;40.85;;;16.30;;
64938;SDS011;51453;47.738;7.420;2024-01-15T06:45:13;40.90;;;16.17;;
64938;SDS011;51453;47.738;7.420;2024-01-15T06:47:42;41.47;;;16.08;;
64938;SDS011;51453;47.738;7.420;2024-01-15T06:50:11;42.08;;;16.23;;
64938;SDS011;51453;47.738;7.420;2024-01-15T06:52:39;39.17;;;15.30;;
64938;SDS011;51453;47.738;7.420;2024-01-15T06:55:07;38.63;;;14.65;;
64938;SDS011;51453;47.738;7.420;2024-01-15T06:57:36;37.25;;;15.07;;
64938;SDS011;51453;47.738;7.420;2024-01-15T07:00:03;38.03;;;14.95;;
64938;SDS011;51453;47.738;7.420;2024-01-15T07:02:37;37.70;;;14.98;;
64938;SDS011;51453;47.738;7.420;2024-01-15T07:05:05;34.03;;;14.10;;
64938;SDS011;51453;47.738;7.420;2024-01-15T07:07:37;38.88;;;15.68;;
64938;SDS011;51453;47.738;7.420;2024-01-15T07:10:08;44.00;;;16.77;;
64938;SDS011;51453;47.738;7.420;2024-01-15T07:12:43;34.60;;;14.15;;
64938;SDS011;51453;47.738;7.420;2024-01-15T07:15:11;34.65;;;13.55;;
64938;SDS011;51453;47.738;7.420;2024-01-15T07:17:38;34.47;;;13.95;;
64938;SDS011;51453;47.738;7.420;2024-01-15T07:20:08;32.10;;;13.55;;
64938;SDS011;51453;47.738;7.420;2024-01-15T07:22:37;36.85;;;14.27;;
64938;SDS011;51453;47.738;7.420;2024-01-15T07:25:04;30.27;;;12.82;;
64938;SDS011;51453;47.738;7.420;2024-01-15T07:27:32;27.52;;;12.38;;
64938;SDS011;51453;47.738;7.420;2024-01-15T07:29:58;33.97;;;12.90;;
64938;SDS011;51453;47.738;7.420;2024-01-15T07:32:26;34.90;;;15.07;;
64938;SDS011;51453;47.738;7.420;2024-01-15T07:34:53;35.13;;;14.52;;
64938;SDS011;51453;47.738;7.420;2024-01-15T07:37:24;27.95;;;13.32;;
64938;SDS011;51453;47.738;7.420;2024-01-15T07:39:50;23.13;;;11.15;;
64938;SDS011;51453;47.738;7.420;2024-01-15T07:42:17;23.13;;;10.02;;
64938;SDS011;51453;47.738;7.420;2024-01-15T07:44:44;20.58;;;9.23;;
64938;SDS011;51453;47.738;7.420;2024-01-15T07:47:12;21.35;;;9.20;;
64938;SDS011;51453;47.738;7.420;2024-01-15T07:49:45;26.05;;;9.20;;
64938;SDS011;51453;47.738;7.420;2024-01-15T07:52:13;35.92;;;14.65;;
64938;SDS011;51453;47.738;7.420;2024-01-15T07:54:38;24.90;;;10.98;;
64938;SDS011;51453;47.738;7.420;2024-01-15T07:57:06;33.97;;;16.15;;
64938;SDS011;51453;47.738;7.420;2024-01-15T07:59:34;23.77;;;10.70;;
64938;SDS011;51453;47.738;7.420;2024-01-15T08:02:02;30.58;;;13.63;;
64938;SDS011;51453;47.738;7.420;2024-01-15T08:04:30;25.25;;;11.35;;
64938;SDS011;51453;47.738;7.420;2024-01-15T08:07:00;23.10;;;9.93;;
64938;SDS011;51453;47.738;7.420;2024-01-15T08:09:28;25.42;;;11.27;;
64938;SDS011;51453;47.738;7.420;2024-01-15T08:11:56;29.17;;;12.88;;
64938;SDS011;51453;47.738;7.420;2024-01-15T08:14:24;25.50;;;11.27;;
64938;SDS011;51453;47.738;7.420;2024-01-15T08:16:53;30.25;;;13.80;;
64938;SDS011;51453;47.738;7.420;2024-01-15T08:19:25;33.72;;;13.65;;
64938;SDS011;51453;47.738;7.420;2024-01-15T08:21:55;34.20;;;15.10;;
64938;SDS011;51453;47.738;7.420;2024-01-15T08:24:26;32.20;;;14.50;;
64938;SDS011;51453;47.738;7.420;2024-01-15T08:29:24;33.85;;;14.70;;
64938;SDS011;51453;47.738;7.420;2024-01-15T08:31:52;36.20;;;15.60;;
64938;SDS011;51453;47.738;7.420;2024-01-15T08:34:19;38.63;;;16.63;;
64938;SDS011;51453;47.738;7.420;2024-01-15T08:36:48;37.28;;;16.40;;
64938;SDS011;51453;47.738;7.420;2024-01-15T08:39:21;40.70;;;16.75;;
64938;SDS011;51453;47.738;7.420;2024-01-15T08:41:50;42.55;;;17.17;;
64938;SDS011;51453;47.738;7.420;2024-01-15T08:44:17;40.75;;;17.30;;
64938;SDS011;51453;47.738;7.420;2024-01-15T08:46:45;40.47;;;18.75;;
64938;SDS011;51453;47.738;7.420;2024-01-15T08:49:15;39.83;;;17.97;;
64938;SDS011;51453;47.738;7.420;2024-01-15T08:51:48;44.25;;;17.33;;
64938;SDS011;51453;47.738;7.420;2024-01-15T08:54:16;47.92;;;18.40;;
64938;SDS011;51453;47.738;7.420;2024-01-15T08:56:45;43.88;;;18.77;;
64938;SDS011;51453;47.738;7.420;2024-01-15T08:59:14;42.17;;;18.13;;
64938;SDS011;51453;47.738;7.420;2024-01-15T09:01:43;42.95;;;18.30;;
64938;SDS011;51453;47.738;7.420;2024-01-15T09:04:15;45.63;;;18.60;;
64938;SDS011;51453;47.738;7.420;2024-01-15T09:06:48;42.70;;;18.25;;
64938;SDS011;51453;47.738;7.420;2024-01-15T09:09:19;45.55;;;18.00;;
64938;SDS011;51453;47.738;7.420;2024-01-15T09:11:49;38.47;;;17.13;;
64938;SDS011;51453;47.738;7.420;2024-01-15T09:14:17;42.53;;;18.08;;
64938;SDS011;51453;47.738;7.420;2024-01-15T09:16:49;40.87;;;17.50;;
64938;SDS011;51453;47.738;7.420;2024-01-15T09:19:16;40.72;;;17.95;;
64938;SDS011;51453;47.738;7.420;2024-01-15T09:21:45;48.03;;;19.23;;
64938;SDS011;51453;47.738;7.420;2024-01-15T09:24:17;46.28;;;19.23;;
64938;SDS011;51453;47.738;7.420;2024-01-15T09:26:47;45.78;;;19.30;;
64938;SDS011;51453;47.738;7.420;2024-01-15T09:29:15;42.63;;;18.63;;
64938;SDS011;51453;47.738;7.420;2024-01-15T09:31:46;47.45;;;19.60;;
64938;SDS011;51453;47.738;7.420;2024-01-15T09:34:17;47.10;;;19.73;;
64938;SDS011;51453;47.738;7.420;2024-01-15T09:36:45;46.47;;;20.88;;
64938;SDS011;51453;47.738;7.420;2024-01-15T09:39:15;45.08;;;19.00;;
64938;SDS011;51453;47.738;7.420;2024-01-15T09:41:44;45.13;;;19.08;;
64938;SDS011;51453;47.738;7.420;2024-01-15T09:44:10;43.60;;;19.30;;
64938;SDS011;51453;47.738;7.420;2024-01-15T09:46:38;46.97;;;19.80;;
64938;SDS011;51453;47.738;7.420;2024-01-15T09:49:07;46.00;;;20.10;;
64938;SDS011;51453;47.738;7.420;2024-01-15T09:51:35;41.38;;;18.27;;
64938;SDS011;51453;47.738;7.420;2024-01-15T09:54:05;44.53;;;18.55;;
64938;SDS011;51453;47.738;7.420;2024-01-15T09:56:31;46.78;;;20.58;;
64938;SDS011;51453;47.738;7.420;2024-01-15T09:59:00;50.95;;;22.77;;
64938;SDS011;51453;47.738;7.420;2024-01-15T10:01:29;49.92;;;22.08;;
64938;SDS011;51453;47.738;7.420;2024-01-15T10:03:59;48.38;;;20.95;;
64938;SDS011;51453;47.738;7.420;2024-01-15T10:06:26;45.47;;;20.55;;
64938;SDS011;51453;47.738;7.420;2024-01-15T10:08:56;42.75;;;19.13;;
64938;SDS011;51453;47.738;7.420;2024-01-15T10:11:25;41.67;;;18.13;;
64938;SDS011;51453;47.738;7.420;2024-01-15T10:13:55;30.60;;;13.73;;
64938;SDS011;51453;47.738;7.420;2024-01-15T10:16:22;39.30;;;17.83;;
64938;SDS011;51453;47.738;7.420;2024-01-15T10:18:50;38.00;;;17.52;;
64938;SDS011;51453;47.738;7.420;2024-01-15T10:21:18;36.05;;;16.85;;
64938;SDS011;51453;47.738;7.420;2024-01-15T10:23:49;36.08;;;16.23;;
64938;SDS011;51453;47.738;7.420;2024-01-15T10:26:18;37.33;;;16.65;;
64938;SDS011;51453;47.738;7.420;2024-01-15T10:28:47;37.60;;;16.88;;
64938;SDS011;51453;47.738;7.420;2024-01-15T10:31:17;32.75;;;15.88;;
64938;SDS011;51453;47.738;7.420;2024-01-15T10:33:45;38.22;;;16.25;;
64938;SDS011;51453;47.738;7.420;2024-01-15T10:36:12;35.90;;;16.10;;
64938;SDS011;51453;47.738;7.420;2024-01-15T10:38:39;33.40;;;15.13;;
64938;SDS011;51453;47.738;7.420;2024-01-15T10:41:08;36.08;;;16.55;;
64938;SDS011;51453;47.738;7.420;2024-01-15T10:43:35;36.35;;;16.33;;
64938;SDS011;51453;47.738;7.420;2024-01-15T10:46:03;41.20;;;17.55;;
64938;SDS011;51453;47.738;7.420;2024-01-15T10:48:32;41.83;;;19.00;;
64938;SDS011;51453;47.738;7.420;2024-01-15T10:51:01;41.20;;;19.00;;
64938;SDS011;51453;47.738;7.420;2024-01-15T10:53:39;37.42;;;16.88;;
64938;SDS011;51453;47.738;7.420;2024-01-15T10:56:06;36.45;;;16.63;;
64938;SDS011;51453;47.738;7.420;2024-01-15T10:58:36;38.00;;;17.50;;
64938;SDS011;51453;47.738;7.420;2024-01-15T11:01:05;36.17;;;17.52;;
64938;SDS011;51453;47.738;7.420;2024-01-15T11:03:32;37.42;;;16.73;;
64938;SDS011;51453;47.738;7.420;2024-01-15T11:05:59;37.42;;;16.55;;
64938;SDS011;51453;47.738;7.420;2024-01-15T11:08:25;35.90;;;16.27;;
64938;SDS011;51453;47.738;7.420;2024-01-15T11:10:52;40.50;;;17.00;;
64938;SDS011;51453;47.738;7.420;2024-01-15T11:14:02;35.60;;;16.13;;
64938;SDS011;51453;47.738;7.420;2024-01-15T11:16:12;33.80;;;16.10;;
64938;SDS011;51453;47.738;7.420;2024-01-15T11:18:42;33.85;;;16.10;;
64938;SDS011;51453;47.738;7.420;2024-01-15T11:21:27;31.55;;;14.55;;
64938;SDS011;51453;47.738;7.420;2024-01-15T11:23:58;35.08;;;16.45;;
64938;SDS011;51453;47.738;7.420;2024-01-15T11:26:30;38.28;;;16.67;;
64938;SDS011;51453;47.738;7.420;2024-01-15T11:29:03;36.55;;;16.80;;
64938;SDS011;51453;47.738;7.420;2024-01-15T11:34:09;32.05;;;15.63;;
64938;SDS011;51453;47.738;7.420;2024-01-15T11:40:02;37.83;;;17.75;;
64938;SDS011;51453;47.738;7.420;2024-01-15T11:42:07;40.03;;;18.40;;
64938;SDS011;51453;47.738;7.420;2024-01-15T11:44:35;36.20;;;17.73;;
64938;SDS011;51453;47.738;7.420;2024-01-15T11:47:02;38.08;;;18.17;;
64938;SDS011;51453;47.738;7.420;2024-01-15T11:52:15;34.33;;;17.58;;
64938;SDS011;51453;47.738;7.420;2024-01-15T11:54:45;39.35;;;18.00;;
64938;SDS011;51453;47.738;7.420;2024-01-15T12:00:10;38.67;;;17.05;;
64938;SDS011;51453;47.738;7.420;2024-01-15T12:02:42;35.67;;;17.38;;
64938;SDS011;51453;47.738;7.420;2024-01-15T12:07:43;29.87;;;14.47;;
64938;SDS011;51453;47.738;7.420;2024-01-15T12:10:19;34.63;;;16.88;;
64938;SDS011;51453;47.738;7.420;2024-01-15T12:15:38;33.40;;;16.50;;
64938;SDS011;51453;47.738;7.420;2024-01-15T12:18:08;32.17;;;17.27;;
64938;SDS011;51453;47.738;7.420;2024-01-15T12:20:39;34.78;;;16.75;;
64938;SDS011;51453;47.738;7.420;2024-01-15T12:23:07;34.70;;;16.90;;
64938;SDS011;51453;47.738;7.420;2024-01-15T12:25:36;34.05;;;16.80;;
64938;SDS011;51453;47.738;7.420;2024-01-15T12:28:03;33.47;;;15.93;;
64938;SDS011;51453;47.738;7.420;2024-01-15T12:30:33;30.95;;;15.98;;
64938;SDS011;51453;47.738;7.420;2024-01-15T12:33:03;34.72;;;15.98;;
64938;SDS011;51453;47.738;7.420;2024-01-15T12:35:30;32.95;;;15.98;;
64938;SDS011;51453;47.738;7.420;2024-01-15T12:37:57;36.08;;;17.55;;
64938;SDS011;51453;47.738;7.420;2024-01-15T12:40:27;32.65;;;16.65;;
64938;SDS011;51453;47.738;7.420;2024-01-15T12:42:57;32.72;;;16.30;;
64938;SDS011;51453;47.738;7.420;2024-01-15T12:45:26;33.45;;;16.17;;
64938;SDS011;51453;47.738;7.420;2024-01-15T12:47:53;31.98;;;16.40;;
64938;SDS011;51453;47.738;7.420;2024-01-15T12:50:23;31.48;;;16.30;;
64938;SDS011;51453;47.738;7.420;2024-01-15T12:52:52;34.08;;;16.15;;
64938;SDS011;51453;47.738;7.420;2024-01-15T12:55:19;33.78;;;16.92;;
64938;SDS011;51453;47.738;7.420;2024-01-15T12:57:45;34.30;;;16.98;;
64938;SDS011;51453;47.738;7.420;2024-01-15T13:00:13;36.38;;;16.90;;
64938;SDS011;51453;47.738;7.420;2024-01-15T13:02:39;35.67;;;17.42;;
64938;SDS011;51453;47.738;7.420;2024-01-15T13:05:09;33.72;;;16.33;;
64938;SDS011;51453;47.738;7.420;2024-01-15T13:07:39;35.97;;;17.58;;
64938;SDS011;51453;47.738;7.420;2024-01-15T13:10:06;36.67;;;18.10;;
64938;SDS011;51453;47.738;7.420;2024-01-15T13:12:40;41.17;;;18.83;;
64938;SDS011;51453;47.738;7.420;2024-01-15T13:15:07;37.97;;;18.73;;
64938;SDS011;51453;47.738;7.420;2024-01-15T13:17:37;39.53;;;19.05;;
64938;SDS011;51453;47.738;7.420;2024-01-15T13:20:05;41.08;;;20.35;;
64938;SDS011;51453;47.738;7.420;2024-01-15T13:22:33;37.00;;;19.45;;
64938;SDS011;51453;47.738;7.420;2024-01-15T13:24:59;42.85;;;20.60;;
64938;SDS011;51453;47.738;7.420;2024-01-15T13:27:25;42.47;;;19.30;;
64938;SDS011;51453;47.738;7.420;2024-01-15T13:29:51;42.30;;;21.20;;
64938;SDS011;51453;47.738;7.420;2024-01-15T13:32:22;41.83;;;20.10;;
64938;SDS011;51453;47.738;7.420;2024-01-15T13:34:55;41.50;;;19.33;;
64938;SDS011;51453;47.738;7.420;2024-01-15T13:37:22;45.83;;;20.67;;
64938;SDS011;51453;47.738;7.420;2024-01-15T13:39:51;41.97;;;20.70;;
64938;SDS011;51453;47.738;7.420;2024-01-15T13:42:18;35.80;;;18.65;;
64938;SDS011;51453;47.738;7.420;2024-01-15T13:44:47;37.33;;;18.65;;
64938;SDS011;51453;47.738;7.420;2024-01-15T13:47:13;39.90;;;19.42;;
64938;SDS011;51453;47.738;7.420;2024-01-15T13:49:41;42.15;;;20.42;;
64938;SDS011;51453;47.738;7.420;2024-01-15T13:52:08;43.17;;;20.50;;
64938;SDS011;51453;47.738;7.420;2024-01-15T13:54:34;44.08;;;21.35;;
64938;SDS011;51453;47.738;7.420;2024-01-15T13:57:00;46.00;;;21.33;;
64938;SDS011;51453;47.738;7.420;2024-01-15T13:59:27;38.20;;;19.77;;
64938;SDS011;51453;47.738;7.420;2024-01-15T14:01:54;41.95;;;20.58;;
64938;SDS011;51453;47.738;7.420;2024-01-15T14:04:21;45.15;;;20.88;;
64938;SDS011;51453;47.738;7.420;2024-01-15T14:06:48;45.78;;;22.17;;
64938;SDS011;51453;47.738;7.420;2024-01-15T14:09:15;42.83;;;20.02;;
64938;SDS011;51453;47.738;7.420;2024-01-15T14:11:42;44.30;;;21.33;;
64938;SDS011;51453;47.738;7.420;2024-01-15T14:14:09;41.70;;;20.05;;
64938;SDS011;51453;47.738;7.420;2024-01-15T14:16:37;40.63;;;19.88;;
64938;SDS011;51453;47.738;7.420;2024-01-15T14:19:03;46.47;;;21.08;;
64938;SDS011;51453;47.738;7.420;2024-01-15T14:21:35;44.75;;;21.67;;
64938;SDS011;51453;47.738;7.420;2024-01-15T14:24:02;42.15;;;19.92;;
64938;SDS011;51453;47.738;7.420;2024-01-15T14:26:29;42.50;;;20.17;;
64938;SDS011;51453;47.738;7.420;2024-01-15T14:28:55;44.97;;;21.00;;
64938;SDS011;51453;47.738;7.420;2024-01-15T14:31:20;43.72;;;20.55;;
64938;SDS011;51453;47.738;7.420;2024-01-15T14:33:47;42.83;;;19.52;;
64938;SDS011;51453;47.738;7.420;2024-01-15T14:36:13;48.00;;;20.85;;
64938;SDS011;51453;47.738;7.420;2024-01-15T14:38:39;44.45;;;20.20;;
64938;SDS011;51453;47.738;7.420;2024-01-15T14:41:07;47.03;;;20.17;;
64938;SDS011;51453;47.738;7.420;2024-01-15T14:43:33;44.70;;;21.20;;
64938;SDS011;51453;47.738;7.420;2024-01-15T14:46:00;43.03;;;20.83;;
64938;SDS011;51453;47.738;7.420;2024-01-15T14:48:26;46.08;;;21.10;;
64938;SDS011;51453;47.738;7.420;2024-01-15T14:50:52;46.50;;;21.55;;
64938;SDS011;51453;47.738;7.420;2024-01-15T14:53:18;53.03;;;23.42;;
64938;SDS011;51453;47.738;7.420;2024-01-15T14:55:44;44.05;;;21.45;;